Time;durP1;ratioP1;P1;durP2;ratioP2;P2;SDS_P1;SDS_P2;PMS_P1;PMS_P2;Temp;Humidity;BMP_temperature;BMP_pressure;BME280_temperature;BME280_humidity;BME280_pressure;Samples;Min_cycle;Max_cycle;Signal;HPM_P1;HPM_P2
2023/04/18 00:01:11;;;;;;;10.87;5.97;;;;;;;;;;5071338;28;20862;-70
2023/04/18 00:03:39;;;;;;;9.20;5.90;;;;;;;;;;5071018;28;20765;-70
2023/04/18 00:06:11;;;;;;;10.13;7.13;;;;;;;;;;5076269;28;20457;-70
2023/04/18 00:08:41;;;;;;;8.97;6.20;;;;;;;;;;5071337;28;20514;-71
2023/04/18 00:11:10;;;;;;;9.00;7.33;;;;;;;;;;5071348;28;20436;-71
2023/04/18 00:13:38;;;;;;;11.90;7.80;;;;;;;;;;5071025;28;20488;-70
2023/04/18 00:16:06;;;;;;;12.10;7.33;;;;;;;;;;5070519;28;20548;-70
2023/04/18 00:18:35;;;;;;;11.03;7.73;;;;;;;;;;5071549;28;20496;-70
2023/04/18 00:21:03;;;;;;;8.90;7.17;;;;;;;;;;5076224;28;20737;-71
2023/04/18 00:23:32;;;;;;;9.57;6.93;;;;;;;;;;5074647;28;20533;-68
2023/04/18 00:26:00;;;;;;;12.23;8.30;;;;;;;;;;5072475;28;20477;-71
2023/04/18 00:28:29;;;;;;;13.50;7.80;;;;;;;;;;5071252;28;20483;-69
2023/04/18 00:30:57;;;;;;;11.03;8.50;;;;;;;;;;5067832;28;20842;-70
2023/04/18 00:33:29;;;;;;;10.83;8.37;;;;;;;;;;5078767;28;20444;-70
2023/04/18 00:35:57;;;;;;;11.80;7.67;;;;;;;;;;5069505;28;20526;-71
2023/04/18 00:38:25;;;;;;;10.93;7.97;;;;;;;;;;5067356;28;20450;-70
2023/04/18 00:40:56;;;;;;;10.03;8.03;;;;;;;;;;5079383;28;20931;-71
2023/04/18 00:43:27;;;;;;;12.60;7.80;;;;;;;;;;5070907;28;20453;-71
2023/04/18 00:46:00;;;;;;;15.30;8.13;;;;;;;;;;5070186;28;20488;-70
2023/04/18 00:48:28;;;;;;;10.77;8.23;;;;;;;;;;5068750;28;20959;-70
2023/04/18 00:50:56;;;;;;;13.77;8.63;;;;;;;;;;5074556;28;20446;-71
2023/04/18 00:53:24;;;;;;;12.13;9.10;;;;;;;;;;5073780;28;20484;-70
2023/04/18 00:55:52;;;;;;;10.47;8.17;;;;;;;;;;5076796;28;20458;-71
2023/04/18 00:58:25;;;;;;;10.53;8.47;;;;;;;;;;5070927;28;20466;-70
2023/04/18 01:01:01;;;;;;;10.43;7.73;;;;;;;;;;5071249;28;20463;-70
2023/04/18 01:03:28;;;;;;;11.70;8.40;;;;;;;;;;5072640;28;20441;-69
2023/04/18 01:05:56;;;;;;;13.27;8.60;;;;;;;;;;5069902;28;20446;-70
2023/04/18 01:08:26;;;;;;;18.30;8.37;;;;;;;;;;5074495;28;20492;-69
2023/04/18 01:10:57;;;;;;;13.10;7.97;;;;;;;;;;5077543;28;20485;-71
2023/04/18 01:13:33;;;;;;;9.53;7.73;;;;;;;;;;5067214;28;20456;-69
2023/04/18 01:16:05;;;;;;;10.97;8.40;;;;;;;;;;5071218;28;20457;-70
2023/04/18 01:18:33;;;;;;;12.73;8.70;;;;;;;;;;5070723;28;20457;-70
2023/04/18 01:21:01;;;;;;;13.90;9.23;;;;;;;;;;5072380;28;20551;-70
2023/04/18 01:23:29;;;;;;;10.77;7.83;;;;;;;;;;5079186;28;20561;-71
2023/04/18 01:26:00;;;;;;;10.60;7.90;;;;;;;;;;5081922;28;20503;-70
2023/04/18 01:28:28;;;;;;;10.20;7.90;;;;;;;;;;5084809;28;20512;-71
2023/04/18 01:30:56;;;;;;;13.23;8.83;;;;;;;;;;5082734;28;20679;-71
2023/04/18 01:33:24;;;;;;;13.30;9.60;;;;;;;;;;5065692;28;20482;-70
2023/04/18 01:35:52;;;;;;;10.67;7.87;;;;;;;;;;5064742;28;20859;-70
2023/04/18 01:38:20;;;;;;;11.50;8.07;;;;;;;;;;5070635;28;20449;-71
2023/04/18 01:41:08;;;;;;;14.30;7.90;;;;;;;;;;5074953;28;20453;-72
2023/04/18 01:43:37;;;;;;;15.07;8.07;;;;;;;;;;5071208;28;20456;-71
2023/04/18 01:46:05;;;;;;;13.10;9.00;;;;;;;;;;5072008;28;20503;-71
2023/04/18 01:48:33;;;;;;;12.97;8.20;;;;;;;;;;5067447;28;20488;-70
2023/04/18 01:51:01;;;;;;;12.90;9.47;;;;;;;;;;5071199;28;20464;-70
2023/04/18 01:53:29;;;;;;;12.87;9.10;;;;;;;;;;5070676;28;20531;-71
2023/04/18 01:55:57;;;;;;;11.67;8.73;;;;;;;;;;5074729;28;20461;-70
2023/04/18 01:58:28;;;;;;;12.70;10.20;;;;;;;;;;5076251;28;20455;-69
2023/04/18 02:01:04;;;;;;;14.90;9.57;;;;;;;;;;5072436;28;20876;-71
2023/04/18 02:03:34;;;;;;;11.57;8.23;;;;;;;;;;5069736;28;20821;-71
2023/04/18 02:06:02;;;;;;;12.43;9.03;;;;;;;;;;5061754;28;20469;-69
2023/04/18 02:08:31;;;;;;;12.67;9.60;;;;;;;;;;5059059;28;20496;-71
2023/04/18 02:11:00;;;;;;;17.37;12.40;;;;;;;;;;5061843;28;20494;-71
2023/04/18 02:13:27;;;;;;;16.57;11.60;;;;;;;;;;5058015;28;20462;-71
2023/04/18 02:15:55;;;;;;;15.43;11.13;;;;;;;;;;5057354;28;20459;-70
2023/04/18 02:18:25;;;;;;;16.73;11.43;;;;;;;;;;5057837;28;20457;-70
2023/04/18 02:20:56;;;;;;;13.77;10.23;;;;;;;;;;5058540;28;20476;-70
2023/04/18 02:23:25;;;;;;;16.70;11.10;;;;;;;;;;5058799;28;20472;-70
2023/04/18 02:25:53;;;;;;;15.60;10.83;;;;;;;;;;5058135;28;20535;-70
2023/04/18 02:28:21;;;;;;;16.20;12.67;;;;;;;;;;5060939;28;20779;-70
2023/04/18 02:30:49;;;;;;;17.30;12.20;;;;;;;;;;5060771;28;20477;-70
2023/04/18 02:33:16;;;;;;;16.93;11.40;;;;;;;;;;5063180;28;20469;-70
2023/04/18 02:35:45;;;;;;;15.63;12.60;;;;;;;;;;5061206;28;20438;-70
2023/04/18 02:38:26;;;;;;;16.90;11.67;;;;;;;;;;5059654;28;20450;-71
2023/04/18 02:41:00;;;;;;;21.67;12.57;;;;;;;;;;5061765;28;20854;-71
2023/04/18 02:43:28;;;;;;;18.20;13.50;;;;;;;;;;5059191;28;20445;-70
2023/04/18 02:45:56;;;;;;;16.73;11.80;;;;;;;;;;5062369;28;20493;-70
2023/04/18 02:48:35;;;;;;;18.33;10.87;;;;;;;;;;5060139;28;20554;-71
2023/04/18 02:51:05;;;;;;;18.80;12.20;;;;;;;;;;5061874;28;20472;-70
2023/04/18 02:53:34;;;;;;;18.07;12.37;;;;;;;;;;5059559;28;20913;-71
2023/04/18 02:56:02;;;;;;;19.43;12.17;;;;;;;;;;5060802;28;20905;-70
2023/04/18 02:58:30;;;;;;;18.23;11.53;;;;;;;;;;5060994;28;20457;-70
2023/04/18 03:00:57;;;;;;;23.97;13.83;;;;;;;;;;5059472;28;20464;-72
2023/04/18 03:03:25;;;;;;;18.23;13.03;;;;;;;;;;5060811;28;21052;-70
2023/04/18 03:06:10;;;;;;;19.40;12.03;;;;;;;;;;5063854;28;20537;-70
2023/04/18 03:08:40;;;;;;;22.00;13.90;;;;;;;;;;5077657;28;20563;-70
2023/04/18 03:11:08;;;;;;;20.20;13.57;;;;;;;;;;5074947;28;20471;-70
2023/04/18 03:13:36;;;;;;;21.50;13.93;;;;;;;;;;5065504;28;20446;-70
2023/04/18 03:16:04;;;;;;;16.17;11.60;;;;;;;;;;5042027;28;20454;-70
2023/04/18 03:18:32;;;;;;;22.77;13.13;;;;;;;;;;5059431;28;20445;-71
2023/04/18 03:20:59;;;;;;;21.87;14.50;;;;;;;;;;5061746;28;20515;-70
2023/04/18 03:23:27;;;;;;;25.47;13.50;;;;;;;;;;5058893;28;20461;-70
2023/04/18 03:26:00;;;;;;;18.80;13.60;;;;;;;;;;5061278;28;20465;-70
2023/04/18 03:28:28;;;;;;;22.20;14.83;;;;;;;;;;5062628;28;20472;-70
2023/04/18 03:30:56;;;;;;;20.53;13.33;;;;;;;;;;5076706;28;20488;-70
2023/04/18 03:33:24;;;;;;;23.70;14.93;;;;;;;;;;5057806;28;20469;-70
2023/04/18 03:35:52;;;;;;;21.23;14.50;;;;;;;;;;5055791;28;20897;-70
2023/04/18 03:38:22;;;;;;;22.33;14.20;;;;;;;;;;5065656;28;20452;-70
2023/04/18 03:41:17;;;;;;;22.53;13.33;;;;;;;;;;5069753;28;20441;-70
2023/04/18 03:43:46;;;;;;;20.43;14.03;;;;;;;;;;5060479;28;20509;-70
2023/04/18 03:46:15;;;;;;;26.80;15.40;;;;;;;;;;5058015;28;20454;-71
2023/04/18 03:48:42;;;;;;;24.83;14.40;;;;;;;;;;5059321;28;20485;-71
2023/04/18 03:51:18;;;;;;;26.53;14.87;;;;;;;;;;5057663;28;20926;-71
2023/04/18 03:53:47;;;;;;;28.37;15.27;;;;;;;;;;5057652;28;20440;-70
2023/04/18 03:56:14;;;;;;;26.17;15.83;;;;;;;;;;5057629;28;20535;-70
2023/04/18 03:58:43;;;;;;;26.40;17.30;;;;;;;;;;5058053;28;20454;-71
2023/04/18 04:01:12;;;;;;;27.20;17.30;;;;;;;;;;5073155;28;20461;-71
2023/04/18 04:03:41;;;;;;;24.10;15.33;;;;;;;;;;5072705;28;20457;-71
2023/04/18 04:06:09;;;;;;;22.73;16.00;;;;;;;;;;5069810;28;20449;-70
2023/04/18 04:08:38;;;;;;;27.83;16.07;;;;;;;;;;5061304;28;20489;-71
2023/04/18 04:11:06;;;;;;;25.87;16.90;;;;;;;;;;5057819;28;20545;-71
2023/04/18 04:13:34;;;;;;;27.40;17.27;;;;;;;;;;5061931;28;20441;-70
2023/04/18 04:16:04;;;;;;;27.00;16.57;;;;;;;;;;5066432;28;20759;-70
2023/04/18 04:18:33;;;;;;;29.77;17.30;;;;;;;;;;5054863;28;20850;-70
2023/04/18 04:21:01;;;;;;;31.37;17.60;;;;;;;;;;5056605;28;20461;-71
2023/04/18 04:23:33;;;;;;;29.97;17.80;;;;;;;;;;5077598;28;20452;-69
2023/04/18 04:26:03;;;;;;;28.07;18.00;;;;;;;;;;5077761;28;20472;-70
2023/04/18 04:28:31;;;;;;;25.83;17.43;;;;;;;;;;5078960;28;20508;-69
2023/04/18 04:30:59;;;;;;;29.40;17.87;;;;;;;;;;5061813;28;20446;-69
2023/04/18 04:33:32;;;;;;;29.83;19.43;;;;;;;;;;5059296;28;20753;-70
2023/04/18 04:36:02;;;;;;;30.17;17.90;;;;;;;;;;5068640;28;20526;-70
2023/04/18 04:38:30;;;;;;;29.73;18.50;;;;;;;;;;5059541;28;20461;-69
2023/04/18 04:40:58;;;;;;;26.70;17.20;;;;;;;;;;5063656;28;20542;-70
2023/04/18 04:43:27;;;;;;;35.03;19.83;;;;;;;;;;5079668;28;20536;-70
2023/04/18 04:45:56;;;;;;;28.10;18.60;;;;;;;;;;5076011;28;20456;-69
2023/04/18 04:48:24;;;;;;;41.87;20.03;;;;;;;;;;5079670;28;20485;-70
2023/04/18 04:50:57;;;;;;;32.60;20.63;;;;;;;;;;5077782;28;20873;-69
2023/04/18 04:53:29;;;;;;;30.83;19.43;;;;;;;;;;5079719;28;20472;-69
2023/04/18 04:55:56;;;;;;;32.37;18.60;;;;;;;;;;5077609;28;20470;-70
2023/04/18 04:58:32;;;;;;;32.17;20.90;;;;;;;;;;5072561;28;20484;-71
2023/04/18 05:01:00;;;;;;;34.70;19.50;;;;;;;;;;5057910;28;20449;-69
2023/04/18 05:03:27;;;;;;;33.50;22.20;;;;;;;;;;5080751;28;20449;-69
2023/04/18 05:06:02;;;;;;;35.63;21.30;;;;;;;;;;5076185;28;20744;-70
2023/04/18 05:08:31;;;;;;;33.90;21.00;;;;;;;;;;5057891;28;20481;-70
2023/04/18 05:11:00;;;;;;;38.03;22.43;;;;;;;;;;5060815;28;20462;-70
2023/04/18 05:13:27;;;;;;;34.53;20.67;;;;;;;;;;5056717;28;21077;-71
2023/04/18 05:15:58;;;;;;;35.53;21.87;;;;;;;;;;5057456;28;20464;-70
2023/04/18 05:18:31;;;;;;;33.07;20.80;;;;;;;;;;5060389;28;20515;-70
2023/04/18 05:21:00;;;;;;;37.13;21.87;;;;;;;;;;5063593;28;20469;-70
2023/04/18 05:23:28;;;;;;;28.60;20.50;;;;;;;;;;5078080;28;20518;-70
2023/04/18 05:25:59;;;;;;;34.30;20.33;;;;;;;;;;5077359;28;20475;-71
2023/04/18 05:28:27;;;;;;;27.87;19.87;;;;;;;;;;5078161;28;20516;-69
2023/04/18 05:31:00;;;;;;;34.20;20.50;;;;;;;;;;5076153;28;20464;-69
2023/04/18 05:33:28;;;;;;;27.90;18.57;;;;;;;;;;5075015;28;20461;-70
2023/04/18 05:35:56;;;;;;;30.07;18.37;;;;;;;;;;5075798;28;20456;-69
2023/04/18 05:38:32;;;;;;;32.93;20.30;;;;;;;;;;5073756;28;20473;-69
2023/04/18 05:41:08;;;;;;;29.93;19.37;;;;;;;;;;5077524;28;20520;-70
2023/04/18 05:43:35;;;;;;;32.17;19.20;;;;;;;;;;5074713;28;20538;-69
2023/04/18 05:46:03;;;;;;;29.30;18.63;;;;;;;;;;5072534;28;20873;-70
2023/04/18 05:48:31;;;;;;;29.00;19.37;;;;;;;;;;5068832;28;20473;-71
2023/04/18 05:50:58;;;;;;;29.60;18.90;;;;;;;;;;5072259;28;20473;-69
2023/04/18 05:53:27;;;;;;;29.80;17.33;;;;;;;;;;5076962;28;20440;-69
2023/04/18 05:55:58;;;;;;;33.00;20.17;;;;;;;;;;5072679;28;20484;-71
2023/04/18 05:58:28;;;;;;;27.57;18.73;;;;;;;;;;5073754;28;20461;-71
2023/04/18 06:00:56;;;;;;;30.47;19.13;;;;;;;;;;5075650;28;20799;-69
2023/04/18 06:03:24;;;;;;;30.10;17.27;;;;;;;;;;5053026;28;20547;-69
2023/04/18 06:05:52;;;;;;;33.50;18.87;;;;;;;;;;5056021;28;21313;-70
2023/04/18 06:08:20;;;;;;;31.10;19.33;;;;;;;;;;5051439;28;20446;-69
2023/04/18 06:10:48;;;;;;;29.37;18.40;;;;;;;;;;5072855;28;20568;-69
2023/04/18 06:13:16;;;;;;;29.00;18.07;;;;;;;;;;5071270;28;20500;-69
2023/04/18 06:15:49;;;;;;;26.40;17.53;;;;;;;;;;5076345;28;20467;-70
2023/04/18 06:18:24;;;;;;;30.77;16.97;;;;;;;;;;5072524;28;20563;-69
2023/04/18 06:21:12;;;;;;;27.13;15.90;;;;;;;;;;5072760;28;20495;-71
2023/04/18 06:23:42;;;;;;;27.60;16.70;;;;;;;;;;5072615;28;20532;-72
2023/04/18 06:26:19;;;;;;;22.20;16.27;;;;;;;;;;5072366;28;20464;-71
2023/04/18 06:28:51;;;;;;;25.33;16.87;;;;;;;;;;5058126;28;20484;-70
2023/04/18 06:31:39;;;;;;;23.13;14.80;;;;;;;;;;5050217;28;21486;-71
2023/04/18 06:34:13;;;;;;;22.83;15.23;;;;;;;;;;5048839;28;20477;-72
2023/04/18 06:37:17;;;;;;;25.57;16.50;;;;;;;;;;5052525;28;20497;-71
2023/04/18 06:40:00;;;;;;;21.40;14.00;;;;;;;;;;5040683;28;20461;-71
2023/04/18 06:42:30;;;;;;;23.13;15.27;;;;;;;;;;5050369;28;20446;-71
2023/04/18 06:45:02;;;;;;;22.93;13.50;;;;;;;;;;5047774;28;20508;-71
2023/04/18 06:47:32;;;;;;;23.90;13.87;;;;;;;;;;5048660;28;21042;-70
2023/04/18 06:49:59;;;;;;;23.93;16.07;;;;;;;;;;5051143;28;20505;-72
2023/04/18 06:52:27;;;;;;;22.33;12.40;;;;;;;;;;5046663;28;20486;-70
2023/04/18 06:54:56;;;;;;;22.40;13.60;;;;;;;;;;5045807;28;20492;-70
2023/04/18 06:57:26;;;;;;;22.60;12.77;;;;;;;;;;5053477;28;20545;-71
2023/04/18 07:00:07;;;;;;;25.27;17.53;;;;;;;;;;5054475;28;20454;-71
2023/04/18 07:03:08;;;;;;;17.57;12.53;;;;;;;;;;5063483;28;20472;-72
2023/04/18 07:05:54;;;;;;;20.53;12.77;;;;;;;;;;5065650;28;20452;-71
2023/04/18 07:08:23;;;;;;;18.23;12.23;;;;;;;;;;5075740;28;20456;-71
2023/04/18 07:10:56;;;;;;;22.00;12.30;;;;;;;;;;5073809;28;20487;-71
2023/04/18 07:13:24;;;;;;;15.90;10.60;;;;;;;;;;5069574;28;20461;-71
2023/04/18 07:16:07;;;;;;;17.87;11.37;;;;;;;;;;5066242;28;20501;-70
2023/04/18 07:18:52;;;;;;;15.47;10.10;;;;;;;;;;5067848;28;20449;-71
2023/04/18 07:21:43;;;;;;;17.33;11.30;;;;;;;;;;5075220;28;20461;-71
2023/04/18 07:24:26;;;;;;;15.27;11.23;;;;;;;;;;5066519;28;20465;-72
2023/04/18 07:27:14;;;;;;;18.30;11.17;;;;;;;;;;5053350;28;20546;-72
2023/04/18 07:29:57;;;;;;;18.20;11.03;;;;;;;;;;5049982;28;20521;-72
2023/04/18 07:32:31;;;;;;;13.53;10.13;;;;;;;;;;5062169;28;20461;-72
2023/04/18 07:35:06;;;;;;;14.83;9.97;;;;;;;;;;5066644;28;20485;-71
2023/04/18 07:37:35;;;;;;;14.20;8.70;;;;;;;;;;5073709;28;20457;-72
2023/04/18 07:40:09;;;;;;;12.63;8.23;;;;;;;;;;5060719;28;20752;-71
2023/04/18 07:42:51;;;;;;;13.70;9.33;;;;;;;;;;5068820;28;20457;-71
2023/04/18 07:45:20;;;;;;;15.23;9.20;;;;;;;;;;5072098;28;20480;-71
2023/04/18 07:47:51;;;;;;;12.90;9.43;;;;;;;;;;5053371;28;20551;-71
2023/04/18 07:50:38;;;;;;;11.00;8.50;;;;;;;;;;5064475;28;20513;-72
2023/04/18 07:53:07;;;;;;;19.50;9.53;;;;;;;;;;5051338;28;20736;-71
2023/04/18 07:55:35;;;;;;;13.73;9.20;;;;;;;;;;5053282;28;21109;-71
2023/04/18 07:58:06;;;;;;;16.87;9.40;;;;;;;;;;5050554;28;20973;-69
2023/04/18 08:00:37;;;;;;;14.77;9.33;;;;;;;;;;5049144;28;20446;-72
2023/04/18 08:03:10;;;;;;;12.00;8.80;;;;;;;;;;5047790;28;20825;-71
2023/04/18 08:05:58;;;;;;;;;;;;;;;;;;;;;
2023/04/18 08:08:26;;;;;;;36.20;22.00;;;;;;;;;;5046766;28;20897;-72
2023/04/18 08:10:53;;;;;;;10.40;7.70;;;;;;;;;;5048602;28;20504;-73
2023/04/18 08:13:40;;;;;;;106.63;83.67;;;;;;;;;;5063063;28;20500;-71
2023/04/18 08:16:11;;;;;;;15.83;8.40;;;;;;;;;;5056991;28;20457;-71
2023/04/18 08:18:46;;;;;;;19.57;11.13;;;;;;;;;;5051549;28;20533;-72
2023/04/18 08:21:21;;;;;;;9.10;7.37;;;;;;;;;;5068664;28;20460;-72
2023/04/18 08:23:51;;;;;;;37.33;23.40;;;;;;;;;;5077661;28;20448;-72
2023/04/18 08:26:20;;;;;;;14.33;9.13;;;;;;;;;;5079232;28;20481;-72
2023/04/18 08:28:50;;;;;;;11.30;6.50;;;;;;;;;;5069653;28;20477;-73
2023/04/18 08:31:19;;;;;;;13.17;7.80;;;;;;;;;;5067004;28;20492;-72
2023/04/18 08:33:47;;;;;;;10.40;6.53;;;;;;;;;;5077516;28;20437;-71
2023/04/18 08:36:21;;;;;;;8.83;6.07;;;;;;;;;;5063912;28;20449;-71
2023/04/18 08:38:50;;;;;;;8.73;6.20;;;;;;;;;;5077567;28;20530;-71
2023/04/18 08:41:22;;;;;;;8.07;6.20;;;;;;;;;;5076309;28;20449;-70
2023/04/18 08:44:01;;;;;;;10.00;6.67;;;;;;;;;;5073950;28;20565;-70
2023/04/18 08:46:46;;;;;;;11.73;7.03;;;;;;;;;;5075240;28;20453;-71
2023/04/18 08:49:21;;;;;;;8.37;6.10;;;;;;;;;;5070014;28;20879;-71
2023/04/18 08:51:58;;;;;;;5.73;4.60;;;;;;;;;;5059696;28;20469;-71
2023/04/18 08:54:49;;;;;;;6.80;4.70;;;;;;;;;;5063514;28;20468;-71
2023/04/18 08:57:26;;;;;;;5.57;4.03;;;;;;;;;;5064386;28;21066;-71
2023/04/18 08:59:59;;;;;;;7.50;4.93;;;;;;;;;;5069606;28;20441;-70
2023/04/18 09:02:55;;;;;;;6.63;4.90;;;;;;;;;;5074969;28;20472;-71
2023/04/18 09:05:37;;;;;;;7.37;4.43;;;;;;;;;;5062355;28;20462;-71
2023/04/18 09:08:26;;;;;;;6.93;5.33;;;;;;;;;;5071387;28;20876;-71
2023/04/18 09:11:21;;;;;;;9.27;6.17;;;;;;;;;;5072108;28;20813;-70
2023/04/18 09:13:49;;;;;;;6.10;4.73;;;;;;;;;;5066542;28;20589;-70
2023/04/18 09:16:26;;;;;;;4.70;3.53;;;;;;;;;;5074626;28;20477;-71
2023/04/18 09:19:17;;;;;;;6.50;3.73;;;;;;;;;;5072766;28;20453;-71
2023/04/18 09:21:47;;;;;;;6.57;4.73;;;;;;;;;;5075799;28;20797;-71
2023/04/18 09:24:36;;;;;;;4.20;3.80;;;;;;;;;;5074392;28;20465;-70
2023/04/18 09:27:23;;;;;;;6.37;4.23;;;;;;;;;;5070927;28;20453;-70
2023/04/18 09:29:51;;;;;;;6.57;4.17;;;;;;;;;;5073218;28;20484;-70
2023/04/18 09:32:32;;;;;;;6.40;4.10;;;;;;;;;;5076445;28;20839;-69
2023/04/18 09:35:08;;;;;;;5.70;4.00;;;;;;;;;;5073049;28;20464;-71
2023/04/18 09:37:54;;;;;;;11.30;4.97;;;;;;;;;;5061759;28;20993;-71
2023/04/18 09:40:35;;;;;;;8.53;4.97;;;;;;;;;;5069739;28;20461;-72
2023/04/18 09:43:22;;;;;;;7.00;4.63;;;;;;;;;;5076951;28;20508;-70
2023/04/18 09:45:51;;;;;;;5.87;4.60;;;;;;;;;;5036780;28;20451;-71
2023/04/18 09:48:19;;;;;;;9.20;4.17;;;;;;;;;;5035412;28;20451;-71
2023/04/18 09:50:54;;;;;;;7.10;3.87;;;;;;;;;;5036868;28;20482;-70
2023/04/18 09:53:36;;;;;;;5.73;4.33;;;;;;;;;;5033974;28;20482;-71
2023/04/18 09:56:27;;;;;;;6.73;4.93;;;;;;;;;;5031675;28;20451;-69
2023/04/18 09:59:00;;;;;;;8.50;5.00;;;;;;;;;;5026208;28;20489;-69
2023/04/18 10:01:32;;;;;;;7.80;4.73;;;;;;;;;;5015347;28;20721;-71
2023/04/18 10:04:08;;;;;;;6.97;4.70;;;;;;;;;;5014092;28;20480;-71
2023/04/18 10:06:43;;;;;;;11.27;7.83;;;;;;;;;;5024109;28;20538;-71
2023/04/18 10:09:14;;;;;;;6.63;4.50;;;;;;;;;;5025836;28;20473;-71
2023/04/18 10:12:05;;;;;;;6.87;5.00;;;;;;;;;;5030888;28;21134;-71
2023/04/18 10:17:36;;;;;;;6.13;4.30;;;;;;;;;;5025211;28;20479;-73
2023/04/18 10:20:40;;;;;;;5.97;4.77;;;;;;;;;;5034302;28;20453;-71
2023/04/18 10:23:51;;;;;;;;;;;;;;;;;;;;;
2023/04/18 10:29:45;;;;;;;7.33;5.40;;;;;;;;;;5028311;28;20423;-72
2023/04/18 10:32:18;;;;;;;6.37;4.83;;;;;;;;;;5023313;28;21070;-72
2023/04/18 10:34:57;;;;;;;5.97;4.23;;;;;;;;;;5023052;28;20489;-72
2023/04/18 10:37:36;;;;;;;7.63;3.93;;;;;;;;;;5023041;28;20547;-70
2023/04/18 10:43:32;;;;;;;8.83;4.47;;;;;;;;;;4998673;28;20815;-71
2023/04/18 10:46:21;;;;;;;7.73;4.73;;;;;;;;;;5068095;28;20732;-73
2023/04/18 10:52:03;;;;;;;5.87;4.60;;;;;;;;;;5060190;28;20564;-71
2023/04/18 10:55:02;;;;;;;7.93;5.50;;;;;;;;;;5055982;28;20476;-71
2023/04/18 11:02:40;;;;;;;5.93;4.30;;;;;;;;;;5061686;28;20453;-70
2023/04/18 11:05:14;;;;;;;6.47;4.50;;;;;;;;;;5070760;28;20297;-71
2023/04/18 11:07:44;;;;;;;9.20;4.83;;;;;;;;;;5069339;28;20543;-70
2023/04/18 11:10:31;;;;;;;5.80;4.23;;;;;;;;;;5070594;28;20573;-72
2023/04/18 11:16:29;;;;;;;9.40;4.97;;;;;;;;;;5068790;28;20453;-71
2023/04/18 11:19:01;;;;;;;6.77;4.97;;;;;;;;;;5069921;28;21012;-71
2023/04/18 11:21:31;;;;;;;7.87;4.30;;;;;;;;;;5066979;28;20449;-72
2023/04/18 11:24:05;;;;;;;5.33;3.97;;;;;;;;;;5067716;28;20459;-70
2023/04/18 11:26:55;;;;;;;6.20;4.53;;;;;;;;;;5069612;28;20543;-70
2023/04/18 11:29:33;;;;;;;5.93;4.23;;;;;;;;;;5058745;28;20460;-72
2023/04/18 11:32:23;;;;;;;5.63;3.80;;;;;;;;;;5070800;28;20460;-70
2023/04/18 11:35:02;;;;;;;7.13;3.60;;;;;;;;;;5072552;28;20457;-72
2023/04/18 11:37:31;;;;;;;9.50;6.53;;;;;;;;;;5069409;28;20476;-71
2023/04/18 11:40:13;;;;;;;9.37;6.47;;;;;;;;;;5070264;28;20435;-71
2023/04/18 11:43:07;;;;;;;8.37;4.70;;;;;;;;;;5074075;28;20496;-71
2023/04/18 11:45:38;;;;;;;5.20;4.40;;;;;;;;;;5072142;28;20449;-72
2023/04/18 11:48:11;;;;;;;5.60;4.20;;;;;;;;;;5073027;28;20479;-71
2023/04/18 11:50:43;;;;;;;6.20;3.83;;;;;;;;;;5071135;28;20480;-70
2023/04/18 11:53:20;;;;;;;7.73;4.30;;;;;;;;;;5068782;28;20454;-70
2023/04/18 11:55:55;;;;;;;7.43;4.30;;;;;;;;;;5052010;28;20468;-70
2023/04/18 11:58:32;;;;;;;9.30;4.60;;;;;;;;;;5056622;28;20464;-70
2023/04/18 12:01:27;;;;;;;6.03;3.83;;;;;;;;;;5060514;28;20454;-71
2023/04/18 12:04:18;;;;;;;7.83;3.83;;;;;;;;;;5077399;28;20469;-73
2023/04/18 12:06:48;;;;;;;5.90;4.60;;;;;;;;;;5075441;28;20428;-70
2023/04/18 12:09:17;;;;;;;7.07;4.83;;;;;;;;;;5076028;28;20445;-70
2023/04/18 12:11:48;;;;;;;7.23;5.17;;;;;;;;;;5074782;28;21116;-70
2023/04/18 12:14:23;;;;;;;7.80;4.50;;;;;;;;;;5075315;28;21067;-70
2023/04/18 12:17:08;;;;;;;7.87;4.57;;;;;;;;;;5076262;28;20440;-71
2023/04/18 12:19:39;;;;;;;7.57;4.10;;;;;;;;;;5075592;28;20461;-70
2023/04/18 12:22:08;;;;;;;6.60;4.70;;;;;;;;;;5077122;28;20455;-70
2023/04/18 12:24:36;;;;;;;4.50;3.80;;;;;;;;;;5075294;28;20464;-70
2023/04/18 12:27:12;;;;;;;5.30;4.63;;;;;;;;;;5076289;28;20753;-71
2023/04/18 12:29:42;;;;;;;8.47;4.73;;;;;;;;;;5059943;28;20766;-70
2023/04/18 12:32:18;;;;;;;13.63;5.97;;;;;;;;;;5072907;28;20585;-70
2023/04/18 12:34:50;;;;;;;10.20;4.80;;;;;;;;;;5072564;28;20532;-71
2023/04/18 12:37:24;;;;;;;7.57;5.00;;;;;;;;;;5066620;28;20461;-71
2023/04/18 12:39:52;;;;;;;8.37;4.87;;;;;;;;;;5053937;28;20726;-71
2023/04/18 12:42:23;;;;;;;9.30;4.60;;;;;;;;;;5051973;28;20464;-71
2023/04/18 12:44:51;;;;;;;8.47;4.90;;;;;;;;;;5070979;28;20449;-70
2023/04/18 12:47:20;;;;;;;10.70;7.97;;;;;;;;;;5055283;28;21057;-72
2023/04/18 12:49:52;;;;;;;7.87;6.60;;;;;;;;;;5065773;28;20461;-70
2023/04/18 12:52:56;;;;;;;7.10;5.23;;;;;;;;;;5073372;28;20480;-71
2023/04/18 12:55:25;;;;;;;5.70;4.10;;;;;;;;;;5069490;28;20467;-69
2023/04/18 12:58:00;;;;;;;5.97;4.53;;;;;;;;;;5055123;28;20450;-70
2023/04/18 13:00:31;;;;;;;5.60;5.00;;;;;;;;;;5072812;28;20464;-70
2023/04/18 13:03:13;;;;;;;6.10;4.80;;;;;;;;;;5066701;28;20477;-71
2023/04/18 13:05:54;;;;;;;6.40;4.40;;;;;;;;;;5050533;28;20558;-71
2023/04/18 13:08:27;;;;;;;6.60;4.83;;;;;;;;;;5060047;28;20476;-70
2023/04/18 13:10:57;;;;;;;6.43;5.40;;;;;;;;;;5060066;28;20618;-70
2023/04/18 13:13:33;;;;;;;7.83;6.30;;;;;;;;;;5072084;28;20453;-69
2023/04/18 13:16:09;;;;;;;7.53;5.90;;;;;;;;;;5071794;28;20448;-71
2023/04/18 13:19:01;;;;;;;;;;;;;;;;;;;;;
2023/04/18 13:24:22;;;;;;;8.33;5.60;;;;;;;;;;5050393;28;20477;-70
2023/04/18 13:26:53;;;;;;;9.13;6.13;;;;;;;;;;5055880;28;20430;-70
2023/04/18 13:29:21;;;;;;;7.50;6.07;;;;;;;;;;5051001;28;20442;-71
2023/04/18 13:32:10;;;;;;;8.07;5.33;;;;;;;;;;5061310;28;20481;-69
2023/04/18 13:34:59;;;;;;;8.30;6.07;;;;;;;;;;5053829;28;21046;-71
2023/04/18 13:37:28;;;;;;;9.90;7.20;;;;;;;;;;5059227;28;20469;-70
2023/04/18 13:40:26;;;;;;;;;;;;;;;;;;;;;
2023/04/18 13:42:55;;;;;;;9.63;7.30;;;;;;;;;;5069226;28;20461;-69
2023/04/18 13:45:26;;;;;;;10.97;7.20;;;;;;;;;;5072179;28;20522;-70
2023/04/18 13:48:02;;;;;;;9.07;6.27;;;;;;;;;;5069477;28;20449;-70
2023/04/18 13:50:35;;;;;;;10.50;6.10;;;;;;;;;;5070811;28;20457;-71
2023/04/18 13:56:18;;;;;;;10.53;7.97;;;;;;;;;;5059089;28;20519;-70
2023/04/18 13:58:48;;;;;;;24.13;19.30;;;;;;;;;;5066385;28;20445;-71
2023/04/18 14:01:26;;;;;;;12.33;7.40;;;;;;;;;;5060895;28;20457;-70
2023/04/18 14:04:04;;;;;;;9.50;6.93;;;;;;;;;;5052266;28;21003;-70
2023/04/18 14:06:37;;;;;;;9.80;6.13;;;;;;;;;;5065291;28;20485;-71
2023/04/18 14:09:32;;;;;;;9.20;7.50;;;;;;;;;;5054032;28;20905;-72
2023/04/18 14:12:13;;;;;;;10.83;7.10;;;;;;;;;;5066745;28;20491;-71
2023/04/18 14:14:49;;;;;;;8.87;7.30;;;;;;;;;;5071131;28;20495;-73
2023/04/18 14:17:17;;;;;;;10.10;7.20;;;;;;;;;;5068952;28;20471;-72
2023/04/18 14:19:46;;;;;;;11.20;7.27;;;;;;;;;;5057833;28;20454;-70
2023/04/18 14:22:14;;;;;;;10.30;6.30;;;;;;;;;;5067538;28;20462;-70
2023/04/18 14:24:47;;;;;;;8.40;7.27;;;;;;;;;;5069749;28;20960;-71
2023/04/18 14:27:18;;;;;;;11.60;7.83;;;;;;;;;;5066843;28;20461;-72
2023/04/18 14:29:49;;;;;;;8.80;6.47;;;;;;;;;;5072020;28;20460;-71
2023/04/18 14:32:33;;;;;;;9.47;7.10;;;;;;;;;;5061237;28;20481;-70
2023/04/18 14:38:25;;;;;;;28.67;15.50;;;;;;;;;;5018653;28;20456;-71
2023/04/18 14:41:10;;;;;;;8.07;6.53;;;;;;;;;;5058861;28;20469;-71
2023/04/18 14:43:41;;;;;;;8.67;7.00;;;;;;;;;;5073394;28;20836;-71
2023/04/18 14:52:54;;;;;;;11.70;6.30;;;;;;;;;;5017584;28;20501;-72
2023/04/18 15:11:30;;;;;;;10.30;7.63;;;;;;;;;;4971411;28;20779;-71
2023/04/18 15:14:06;;;;;;;9.73;7.03;;;;;;;;;;4992847;28;20463;-71
2023/04/18 15:16:39;;;;;;;16.80;10.50;;;;;;;;;;5027708;28;20453;-72
2023/04/18 15:19:07;;;;;;;8.13;6.77;;;;;;;;;;5050700;28;20541;-70
2023/04/18 15:21:35;;;;;;;9.07;6.27;;;;;;;;;;5051122;28;20545;-70
2023/04/18 15:24:04;;;;;;;9.60;6.80;;;;;;;;;;5046417;28;20462;-69
2023/04/18 15:26:37;;;;;;;9.70;6.20;;;;;;;;;;5051587;28;20536;-70
2023/04/18 15:29:08;;;;;;;8.77;6.97;;;;;;;;;;5047978;28;21010;-69
2023/04/18 15:31:39;;;;;;;7.80;6.07;;;;;;;;;;5048266;28;20489;-71
2023/04/18 15:34:26;;;;;;;8.07;6.20;;;;;;;;;;5051193;28;20449;-71
2023/04/18 15:37:15;;;;;;;8.60;5.20;;;;;;;;;;5052693;28;20512;-70
2023/04/18 15:39:50;;;;;;;9.73;6.00;;;;;;;;;;5050120;28;20492;-69
2023/04/18 15:45:43;;;;;;;12.37;7.37;;;;;;;;;;5047615;28;20484;-70
2023/04/18 15:48:33;;;;;;;;;;;;;;;;;;;;;
2023/04/18 15:51:05;;;;;;;11.50;6.80;;;;;;;;;;5049852;28;20462;-70
2023/04/18 15:53:39;;;;;;;8.90;6.47;;;;;;;;;;5031442;28;20446;-71
2023/04/18 15:56:07;;;;;;;10.90;7.37;;;;;;;;;;5043675;28;20461;-71
2023/04/18 15:58:36;;;;;;;9.90;6.50;;;;;;;;;;5042388;28;20549;-69
2023/04/18 16:01:14;;;;;;;10.73;6.80;;;;;;;;;;5046493;28;20922;-69
2023/04/18 16:06:44;;;;;;;8.33;5.70;;;;;;;;;;5044374;28;20462;-71
2023/04/18 16:09:13;;;;;;;9.40;6.97;;;;;;;;;;5050237;28;20454;-69
2023/04/18 16:11:41;;;;;;;8.93;5.87;;;;;;;;;;5069792;28;20482;-70